トロンハイム の空港の天気 - METARとTAF

Trondheim / Vaernes ( ENVA / TRD ) - ノルウェー ヌール・トロンデラーグ県、Stjordal
飛行場実況気象(Metar)
観測時間10/22 13:50 CEST (10/22 11:50 UTC)
風向・風速西南西 4m/s
視程10km以上
天気現象周辺でしゅう雨
全天の4割程度の雲 雲底高度 430m
全天の8割程度の雲 雲底高度 980m
気温4℃
湿度87%
気圧999hPa
METARENVA 221150Z 25008KT 9999 VCSH SCT014 BKN032 04/02 Q0999 NOSIG RMK WIND 670FT 27007KT
過去の天気等 Google飛行場航空写真 Wunderground天気予報

過去48時間のMETAR

飛行場予報(TAF)
発表時間: -
23日2時 CEST から 確率 30% で
全天の8割程度の雲 雲底高度 370m
TAF ENVA 2212/2312 VRB03KT 9999 SCT015 BKN030
PROB30 2300/2309 BKN012